Главная страница
METAR-TAF:

METAR-TAF

Аэропорты :

Kramfors, Швеция

широта: 63-03N, долгота: 017-46E, высота над уровнем моря: 10 м

Текущие метеонаблюдения

Эта сводка был подготовлена 32 минут назад, в 07:50 UTC
Ветер 1 Узел от восточно-юго-восточный
Температура -4°C
Влажность 100%
Давление 1026 hPa
Видимость 10 км и более
Рассеянная облачность на высоте 200 фута
Сплошная облачность на высоте 2900 фута

METAR: ESNK 190750Z 12001KT 9999 BKN002 OVC029 M04/M04 Q1026

Время: 09:22 (08:22 UTC)

Прогноз

Эта сводка был подготовлена 28 минут назад, в 07:54 UTC
Прогноз действительный с 19-го 07 UTC до 19-го 10 UTC
Ветер 2 Узел переменных направлений
Видимость 10 км и более
Рассеянная облачность на высоте 2000 фута
временами
С 19-го 07 UTC до 19-го 10 UTC
Видимость: 4000 м
Рассеянная облачность на высоте 300 фута
небольшой снег, Снежные зерна

TAF: ESNK 190754Z 1907/1910 VRB02KT 9999 BKN020 TEMPO 1907/1910 4000 -SN SG BKN003

Метеонаблюдения и прогнозы для более 4000 аэропортов (сводки METAR и TAF).

Имеющиеся станции представлены на карте желтыми и красными точками.

Чтобы увидеть название станции, наведите на нее мышь.

Затем щелкните, чтобы увидеть метеонаблюдения и метеопрогнозы.

Управление картой: чтобы увеличить масштаб, щелкните зеленые кнопки с черным крестиком; чтобы уменьшить масштаб, щелкните зеленую кнопку с тире; для просмотра соседних карт щелкайте зеленые стрелки.


METAR-TAF: